createdAt,value
2022-12-28T00:00:15.282Z,35.90
2022-12-28T00:02:43.387Z,35.90
2022-12-28T00:05:11.534Z,35.70
2022-12-28T00:07:39.596Z,35.60
2022-12-28T00:10:08.273Z,35.40
2022-12-28T00:12:36.355Z,35.30
2022-12-28T00:15:06.636Z,35.70
2022-12-28T00:17:34.691Z,36.10
2022-12-28T00:20:02.698Z,36.50
2022-12-28T00:22:30.769Z,36.60
2022-12-28T00:24:58.836Z,36.60
2022-12-28T00:27:26.883Z,36.30
2022-12-28T00:29:54.914Z,36.00
2022-12-28T00:32:24.355Z,35.90
2022-12-28T00:34:52.415Z,35.70
2022-12-28T00:37:20.454Z,35.60
2022-12-28T00:39:48.469Z,35.40
2022-12-28T00:42:16.750Z,35.20
2022-12-28T00:44:45.048Z,35.40
2022-12-28T00:47:13.079Z,35.90
2022-12-28T00:49:42.583Z,36.30
2022-12-28T00:52:10.619Z,36.40
2022-12-28T00:54:38.660Z,36.60
2022-12-28T00:57:06.735Z,36.20
2022-12-28T00:59:34.844Z,36.10
2022-12-28T01:02:03.130Z,35.90
2022-12-28T01:04:31.292Z,35.70
2022-12-28T01:07:00.726Z,35.50
2022-12-28T01:09:28.821Z,35.40
2022-12-28T01:11:56.863Z,35.20
2022-12-28T01:14:24.940Z,35.20
2022-12-28T01:16:53.225Z,35.80
2022-12-28T01:19:22.362Z,36.10
2022-12-28T01:21:50.923Z,36.40
2022-12-28T01:24:20.547Z,36.60
2022-12-28T01:26:51.425Z,36.90
2022-12-28T01:29:19.793Z,37.00
2022-12-28T01:31:47.921Z,36.70
2022-12-28T01:34:16.363Z,36.30
2022-12-28T01:36:44.470Z,36.10
2022-12-28T01:39:12.557Z,36.00
2022-12-28T01:41:42.708Z,35.80
2022-12-28T01:44:38.448Z,35.60
2022-12-28T01:47:07.357Z,35.50
2022-12-28T01:49:37.151Z,35.40
2022-12-28T01:52:07.315Z,35.70
2022-12-28T01:54:36.975Z,36.20
2022-12-28T01:57:06.657Z,36.40
2022-12-28T01:59:44.191Z,36.60
2022-12-28T02:02:14.854Z,36.50
2022-12-28T02:04:43.034Z,36.20
2022-12-28T02:07:11.230Z,36.00
2022-12-28T02:09:40.528Z,35.80
2022-12-28T02:12:09.994Z,35.70
2022-12-28T02:14:38.138Z,35.50
2022-12-28T02:17:06.245Z,35.30
2022-12-28T02:19:39.156Z,35.20
2022-12-28T02:22:19.635Z,35.40
2022-12-28T02:25:13.009Z,35.90
2022-12-28T02:27:49.348Z,36.20
2022-12-28T02:30:18.797Z,36.50
2022-12-28T02:32:52.569Z,36.50
2022-12-28T02:35:22.929Z,36.20
2022-12-28T02:37:52.920Z,36.00
2022-12-28T02:40:22.590Z,35.70
2022-12-28T02:42:50.632Z,35.50
2022-12-28T02:45:52.549Z,35.40
2022-12-28T02:48:38.227Z,35.30
2022-12-28T02:51:12.772Z,35.10
2022-12-28T02:53:48.459Z,35.40
2022-12-28T02:56:23.024Z,36.00
2022-12-28T02:59:18.932Z,36.20
2022-12-28T03:02:16.528Z,36.50
2022-12-28T03:05:08.880Z,36.40
2022-12-28T03:07:56.404Z,36.10
2022-12-28T03:10:26.542Z,35.70
2022-12-28T03:12:57.532Z,35.60
2022-12-28T03:15:30.690Z,35.40
2022-12-28T03:18:19.603Z,35.30
2022-12-28T03:21:05.304Z,35.30
2022-12-28T03:23:51.213Z,35.10
2022-12-28T03:26:36.908Z,35.70
2022-12-28T03:29:22.652Z,36.10
2022-12-28T03:31:51.827Z,36.30
2022-12-28T03:34:21.280Z,36.70
2022-12-28T03:36:55.582Z,36.90
2022-12-28T03:39:26.184Z,36.80
2022-12-28T03:42:13.793Z,36.30
2022-12-28T03:44:42.229Z,36.20
2022-12-28T03:47:10.818Z,35.90
2022-12-28T03:49:40.568Z,35.70
2022-12-28T03:52:08.662Z,35.60
2022-12-28T03:54:36.792Z,35.40
2022-12-28T03:57:04.991Z,35.30
2022-12-28T03:59:33.073Z,35.40
2022-12-28T04:02:01.244Z,35.90
2022-12-28T04:04:29.368Z,36.30
2022-12-28T04:06:58.832Z,36.40
2022-12-28T04:09:26.924Z,36.60
2022-12-28T04:11:54.975Z,36.10
2022-12-28T04:14:23.037Z,36.10
2022-12-28T04:16:51.239Z,35.80
2022-12-28T04:19:19.335Z,35.70
2022-12-28T04:21:47.443Z,35.50
2022-12-28T04:24:17.017Z,35.30
2022-12-28T04:26:45.035Z,35.20
2022-12-28T04:29:13.072Z,35.10
2022-12-28T04:31:41.280Z,35.50
2022-12-28T04:34:09.389Z,36.00
2022-12-28T04:36:38.394Z,36.30
2022-12-28T04:39:06.567Z,36.40
2022-12-28T04:41:36.101Z,36.30
2022-12-28T04:44:04.167Z,36.00
2022-12-28T04:46:32.279Z,35.90
2022-12-28T04:49:01.338Z,35.70
2022-12-28T04:51:29.718Z,35.50
2022-12-28T04:53:57.834Z,35.30
2022-12-28T04:56:26.907Z,35.20
2022-12-28T04:58:56.731Z,35.10
2022-12-28T05:01:24.994Z,35.30
2022-12-28T05:03:56.605Z,35.70
2022-12-28T05:06:27.445Z,36.30
2022-12-28T05:08:56.391Z,36.30
2022-12-28T05:11:25.453Z,36.40
2022-12-28T05:13:53.734Z,36.00
2022-12-28T05:16:24.961Z,36.50
2022-12-28T05:18:53.089Z,35.70
2022-12-28T05:21:22.333Z,35.50
2022-12-28T05:23:50.602Z,35.40
2022-12-28T05:26:19.664Z,35.10
2022-12-28T05:28:47.778Z,35.10
2022-12-28T05:31:16.496Z,35.00
2022-12-28T05:33:47.440Z,35.50
2022-12-28T05:36:16.319Z,36.00
2022-12-28T05:38:44.410Z,36.20
2022-12-28T05:41:13.664Z,36.40
2022-12-28T05:43:41.750Z,36.60
2022-12-28T05:46:11.759Z,36.80
2022-12-28T05:48:40.693Z,36.50
2022-12-28T05:51:12.202Z,36.30
2022-12-28T05:53:40.331Z,36.00
2022-12-28T05:56:14.333Z,35.80
2022-12-28T05:58:43.061Z,35.60
2022-12-28T06:01:12.795Z,35.50
2022-12-28T06:03:40.870Z,35.30
2022-12-28T06:06:11.338Z,35.10
2022-12-28T06:08:39.540Z,35.50
2022-12-28T06:11:11.396Z,35.90
2022-12-28T06:13:39.489Z,36.30
2022-12-28T06:16:08.172Z,36.40
2022-12-28T06:18:36.334Z,36.40
2022-12-28T06:21:05.050Z,36.00
2022-12-28T06:23:34.503Z,35.90
2022-12-28T06:26:03.287Z,35.70
2022-12-28T06:28:31.328Z,35.50
2022-12-28T06:31:03.565Z,35.30
2022-12-28T06:33:31.718Z,35.20
2022-12-28T06:35:59.774Z,35.00
2022-12-28T06:38:29.696Z,35.80
2022-12-28T06:41:13.252Z,35.60
2022-12-28T06:43:42.739Z,35.90
2022-12-28T06:46:10.911Z,36.30
2022-12-28T06:48:39.090Z,36.40
2022-12-28T06:51:08.072Z,36.00
2022-12-28T06:53:37.024Z,35.90
2022-12-28T06:56:08.557Z,35.70
2022-12-28T06:58:36.590Z,35.60
2022-12-28T07:01:08.617Z,35.40
2022-12-28T07:03:36.774Z,35.10
2022-12-28T07:06:05.270Z,35.00
2022-12-28T07:08:33.412Z,34.90
2022-12-28T07:11:04.882Z,35.50
2022-12-28T07:13:34.763Z,35.70
2022-12-28T07:16:03.704Z,36.20
2022-12-28T07:18:31.851Z,36.40
2022-12-28T07:21:01.022Z,36.10
2022-12-28T07:23:31.251Z,35.90
2022-12-28T07:25:59.456Z,35.60
2022-12-28T07:28:27.497Z,35.50
2022-12-28T07:30:57.153Z,35.30
2022-12-28T07:33:25.203Z,35.20
2022-12-28T07:35:53.198Z,35.00
2022-12-28T07:38:21.775Z,34.90
2022-12-28T07:40:49.851Z,35.20
2022-12-28T07:43:17.826Z,35.60
2022-12-28T07:45:45.957Z,36.00
2022-12-28T07:48:15.383Z,36.30
2022-12-28T07:50:43.353Z,36.50
2022-12-28T07:53:12.428Z,36.70
2022-12-28T07:55:40.605Z,36.70
2022-12-28T07:58:08.633Z,36.20
2022-12-28T08:00:36.726Z,36.10
2022-12-28T08:03:04.934Z,35.80
2022-12-28T08:05:34.559Z,35.60
2022-12-28T08:08:03.892Z,35.50
2022-12-28T08:10:32.090Z,35.30
2022-12-28T08:13:00.221Z,35.10
2022-12-28T08:15:28.365Z,35.20
2022-12-28T08:17:56.508Z,35.70
2022-12-28T08:20:24.635Z,36.00
2022-12-28T08:22:53.977Z,36.30
2022-12-28T08:25:21.972Z,36.50
2022-12-28T08:27:49.974Z,36.20
2022-12-28T08:30:17.997Z,35.90
2022-12-28T08:32:46.171Z,35.60
2022-12-28T08:35:14.202Z,35.60
2022-12-28T08:37:42.223Z,35.30
2022-12-28T08:40:13.026Z,35.20
2022-12-28T08:42:41.041Z,35.00
2022-12-28T08:45:09.742Z,34.90
2022-12-28T08:47:38.034Z,35.30
2022-12-28T08:50:07.206Z,35.60
2022-12-28T08:52:35.289Z,36.20
2022-12-28T08:55:03.306Z,36.40
2022-12-28T08:57:33.776Z,36.20
2022-12-28T09:00:01.913Z,35.90
2022-12-28T09:02:31.052Z,35.70
2022-12-28T09:04:59.364Z,35.50
2022-12-28T09:07:27.340Z,35.30
2022-12-28T09:09:55.463Z,35.20
2022-12-28T09:12:23.539Z,35.10
2022-12-28T09:14:53.068Z,35.00
2022-12-28T09:17:21.102Z,35.20
2022-12-28T09:19:49.208Z,35.50
2022-12-28T09:22:17.370Z,35.80
2022-12-28T09:24:45.414Z,36.20
2022-12-28T09:27:13.420Z,36.30
2022-12-28T09:29:41.413Z,36.10
2022-12-28T09:32:14.329Z,35.80
2022-12-28T09:34:42.339Z,35.60
2022-12-28T09:37:10.421Z,35.40
2022-12-28T09:39:38.431Z,35.30
2022-12-28T09:42:08.019Z,35.00
2022-12-28T09:44:59.642Z,35.00
2022-12-28T09:47:33.383Z,34.90
2022-12-28T09:50:28.596Z,35.30
2022-12-28T09:53:13.708Z,35.70
2022-12-28T09:55:42.155Z,36.10
2022-12-28T09:58:14.421Z,36.50
2022-12-28T10:00:43.863Z,36.70
2022-12-28T10:03:16.736Z,36.80
2022-12-28T10:05:51.373Z,36.30
2022-12-28T10:08:22.805Z,36.10
2022-12-28T10:10:51.303Z,35.80
2022-12-28T10:13:53.149Z,35.60
2022-12-28T10:16:11.463Z,35.30
2022-12-28T10:18:40.863Z,35.10
2022-12-28T10:21:08.878Z,35.10
2022-12-28T10:23:50.217Z,35.10
2022-12-28T10:26:25.140Z,35.60
2022-12-28T10:28:54.199Z,36.00
2022-12-28T10:31:32.761Z,36.20
2022-12-28T10:34:02.297Z,36.50
2022-12-28T10:36:33.977Z,36.10
2022-12-28T10:39:02.021Z,35.80
2022-12-28T10:41:37.660Z,35.60
2022-12-28T10:44:38.506Z,35.30
2022-12-28T10:47:04.015Z,35.30
2022-12-28T10:49:37.786Z,35.10
2022-12-28T10:52:07.996Z,34.90
2022-12-28T10:54:37.144Z,35.00
2022-12-28T10:57:05.303Z,35.50
2022-12-28T10:59:34.416Z,35.70
2022-12-28T11:02:23.799Z,36.10
2022-12-28T11:04:58.567Z,36.50
2022-12-28T11:07:33.974Z,36.00
2022-12-28T11:10:33.017Z,35.70
2022-12-28T11:13:02.351Z,35.50
2022-12-28T11:15:31.535Z,35.30
2022-12-28T11:18:00.325Z,35.10
2022-12-28T11:20:32.830Z,35.10
2022-12-28T11:23:01.191Z,35.00
2022-12-28T11:25:34.480Z,35.10
2022-12-28T11:28:02.647Z,35.40
2022-12-28T11:30:32.008Z,35.60
2022-12-28T11:33:00.656Z,36.10
2022-12-28T11:35:31.003Z,36.40
2022-12-28T11:37:59.863Z,35.90
2022-12-28T11:40:47.581Z,35.70
2022-12-28T11:43:39.844Z,35.50
2022-12-28T11:46:09.336Z,35.30
2022-12-28T11:48:51.616Z,35.10
2022-12-28T11:51:21.846Z,34.90
2022-12-28T11:53:54.396Z,34.80
2022-12-28T11:56:22.757Z,35.10
2022-12-28T11:59:23.947Z,35.40
2022-12-28T12:01:56.991Z,35.60
2022-12-28T12:04:43.179Z,36.00
2022-12-28T12:07:30.603Z,36.30
2022-12-28T12:10:31.395Z,36.70
2022-12-28T12:12:59.588Z,36.30
2022-12-28T12:15:45.921Z,35.90
2022-12-28T12:18:25.932Z,35.70
2022-12-28T12:21:00.081Z,35.50
2022-12-28T12:23:34.804Z,35.30
2022-12-28T12:26:11.229Z,35.10
2022-12-28T12:28:40.512Z,35.00
2022-12-28T12:31:11.750Z,34.90
2022-12-28T12:33:42.002Z,35.40
2022-12-28T12:36:20.403Z,35.70
2022-12-28T12:39:05.884Z,36.00
2022-12-28T12:41:36.663Z,36.20
2022-12-28T12:44:16.410Z,35.90
2022-12-28T12:47:15.898Z,35.60
2022-12-28T12:50:13.944Z,35.40
2022-12-28T12:52:42.941Z,35.30
2022-12-28T12:55:27.840Z,35.00
2022-12-28T12:57:59.141Z,34.90
2022-12-28T13:00:29.720Z,34.80
2022-12-28T13:03:18.465Z,35.10
2022-12-28T13:05:48.817Z,35.30
2022-12-28T13:08:21.679Z,35.60
2022-12-28T13:10:51.144Z,35.80
2022-12-28T13:13:20.295Z,36.20
2022-12-28T13:15:48.382Z,35.70
2022-12-28T13:21:12.274Z,35.30
2022-12-28T13:23:44.022Z,35.10
2022-12-28T13:26:14.871Z,34.90
2022-12-28T13:28:48.594Z,34.70
2022-12-28T13:31:18.544Z,35.30
2022-12-28T13:33:55.675Z,35.00
2022-12-28T13:36:23.789Z,35.20
2022-12-28T13:39:05.792Z,35.50
2022-12-28T13:41:36.170Z,35.80
2022-12-28T13:44:23.703Z,36.00
2022-12-28T13:46:54.275Z,35.70
2022-12-28T13:49:29.106Z,35.30
2022-12-28T13:52:07.488Z,35.30
2022-12-28T13:54:35.559Z,35.00
2022-12-28T13:57:36.590Z,34.90
2022-12-28T13:59:53.372Z,34.80
2022-12-28T14:02:21.522Z,34.60
2022-12-28T14:04:52.726Z,35.00
2022-12-28T14:07:22.750Z,35.20
2022-12-28T14:09:50.808Z,35.40
2022-12-28T14:12:20.791Z,35.60
2022-12-28T14:14:49.186Z,36.20
2022-12-28T14:17:17.720Z,36.70
2022-12-28T14:19:45.815Z,36.60
2022-12-28T14:22:32.279Z,36.00
2022-12-28T14:25:02.883Z,35.70
2022-12-28T14:27:36.146Z,35.50
2022-12-28T14:30:05.430Z,35.30
2022-12-28T14:32:39.139Z,35.10
2022-12-28T14:35:17.101Z,35.00
2022-12-28T14:37:46.616Z,34.80
2022-12-28T14:40:19.648Z,35.00
2022-12-28T14:42:51.034Z,35.30
2022-12-28T14:45:23.295Z,35.50
2022-12-28T14:47:55.629Z,35.80
2022-12-28T14:50:25.646Z,36.20
2022-12-28T14:53:03.334Z,35.70
2022-12-28T14:55:33.440Z,35.60
2022-12-28T14:58:04.974Z,35.30
2022-12-28T15:00:33.916Z,35.20
2022-12-28T15:03:15.538Z,35.00
2022-12-28T15:05:46.309Z,34.90
2022-12-28T15:08:14.392Z,34.70
2022-12-28T15:10:44.691Z,34.80
2022-12-28T15:13:14.238Z,35.10
2022-12-28T15:15:42.761Z,35.30
2022-12-28T15:18:11.142Z,35.70
2022-12-28T15:20:39.947Z,36.10
2022-12-28T15:23:08.070Z,35.70
2022-12-28T15:25:36.658Z,35.50
2022-12-28T15:28:05.590Z,35.30
2022-12-28T15:30:35.574Z,35.20
2022-12-28T15:33:04.006Z,35.00
2022-12-28T15:35:32.291Z,34.90
2022-12-28T15:38:00.483Z,34.70
2022-12-28T15:40:28.508Z,34.60
2022-12-28T15:42:56.591Z,35.00
2022-12-28T15:45:24.982Z,35.20
2022-12-28T15:47:55.567Z,35.50
2022-12-28T15:50:23.781Z,35.70
2022-12-28T15:52:51.854Z,36.10
2022-12-28T15:55:19.956Z,35.60
2022-12-28T15:57:48.035Z,35.40
2022-12-28T16:00:20.349Z,35.30
2022-12-28T16:02:48.636Z,35.10
2022-12-28T16:05:18.138Z,35.00
2022-12-28T16:07:46.250Z,34.80
2022-12-28T16:10:14.656Z,34.70
2022-12-28T16:12:42.753Z,34.90
2022-12-28T16:15:11.541Z,35.20
2022-12-28T16:17:48.637Z,35.40
2022-12-28T16:20:22.593Z,35.70
2022-12-28T16:22:50.610Z,36.00
2022-12-28T16:25:18.795Z,36.40
2022-12-28T16:27:46.847Z,36.50
2022-12-28T16:30:15.488Z,36.00
2022-12-28T16:32:43.548Z,35.80
2022-12-28T16:35:11.622Z,35.60
2022-12-28T16:37:41.130Z,35.40
2022-12-28T16:40:10.744Z,35.30
2022-12-28T16:42:38.808Z,35.00
2022-12-28T16:45:07.564Z,34.90
2022-12-28T16:47:40.940Z,34.90
2022-12-28T16:50:12.408Z,35.30
2022-12-28T16:52:41.903Z,35.50
2022-12-28T16:55:10.323Z,35.90
2022-12-28T16:57:38.354Z,36.10
2022-12-28T17:00:07.794Z,35.90
2022-12-28T17:02:36.042Z,35.70
2022-12-28T17:05:04.303Z,35.50
2022-12-28T17:07:32.308Z,35.30
2022-12-28T17:10:01.756Z,35.10
2022-12-28T17:12:29.837Z,34.90
2022-12-28T17:15:03.222Z,34.80
2022-12-28T17:17:32.963Z,34.70
2022-12-28T17:20:01.124Z,35.10
2022-12-28T17:22:29.378Z,35.30
2022-12-28T17:24:57.749Z,35.60
2022-12-28T17:27:27.143Z,35.80
2022-12-28T17:29:55.159Z,36.10
2022-12-28T17:32:23.205Z,35.70
2022-12-28T17:34:51.327Z,35.50
2022-12-28T17:37:19.410Z,35.30
2022-12-28T17:39:47.466Z,35.10
2022-12-28T17:42:15.741Z,35.00
2022-12-28T17:44:48.462Z,34.80
2022-12-28T17:47:16.727Z,34.80
2022-12-28T17:49:44.899Z,34.90
2022-12-28T17:52:17.308Z,35.20
2022-12-28T17:54:45.505Z,35.50
2022-12-28T17:57:13.640Z,35.80
2022-12-28T17:59:41.793Z,36.00
2022-12-28T18:02:12.898Z,35.90
2022-12-28T18:04:41.433Z,35.50
2022-12-28T18:07:09.647Z,35.30
2022-12-28T18:09:37.970Z,35.20
2022-12-28T18:12:07.995Z,35.10
2022-12-28T18:14:41.108Z,34.90
2022-12-28T18:17:09.231Z,34.80
2022-12-28T18:19:38.726Z,34.70
2022-12-28T18:22:06.924Z,35.10
2022-12-28T18:24:35.010Z,35.40
2022-12-28T18:27:03.550Z,35.60
2022-12-28T18:29:31.629Z,35.90
2022-12-28T18:31:59.861Z,36.10
2022-12-28T18:34:28.004Z,36.40
2022-12-28T18:36:57.476Z,36.40
2022-12-28T18:39:25.553Z,36.00
2022-12-28T18:41:53.600Z,35.70
2022-12-28T18:44:22.258Z,35.50
2022-12-28T18:46:50.598Z,35.40
2022-12-28T18:49:19.124Z,35.30
2022-12-28T18:51:47.410Z,35.10
2022-12-28T18:54:17.123Z,35.00
2022-12-28T18:56:45.215Z,35.20
2022-12-28T18:59:13.488Z,35.50
2022-12-28T19:04:30.743Z,36.10
2022-12-28T19:06:58.918Z,36.10
2022-12-28T19:09:28.421Z,35.90
2022-12-28T19:12:00.011Z,35.60
2022-12-28T19:14:29.217Z,35.40
2022-12-28T19:16:57.425Z,35.20
2022-12-28T19:19:26.126Z,35.10
2022-12-28T19:21:58.635Z,35.00
2022-12-28T19:24:28.797Z,34.90
2022-12-28T19:26:57.156Z,35.00
2022-12-28T19:29:25.361Z,35.30
2022-12-28T19:31:53.753Z,35.50
2022-12-28T19:34:21.855Z,35.90
2022-12-28T19:36:50.164Z,36.00
2022-12-28T19:39:18.249Z,35.80
2022-12-28T19:41:48.006Z,35.60
2022-12-28T19:44:20.319Z,35.40
2022-12-28T19:46:48.788Z,35.30
2022-12-28T19:49:17.085Z,35.10
2022-12-28T19:51:45.412Z,35.00
2022-12-28T19:54:13.780Z,34.80
2022-12-28T19:56:41.886Z,34.70
2022-12-28T19:59:11.369Z,35.00
2022-12-28T20:01:39.988Z,35.30
2022-12-28T20:04:13.565Z,35.70
2022-12-28T20:06:43.351Z,36.00
2022-12-28T20:09:11.670Z,36.00
2022-12-28T20:11:40.890Z,35.70
2022-12-28T20:14:09.229Z,35.50
2022-12-28T20:16:38.965Z,35.30
2022-12-28T20:19:08.642Z,35.10
2022-12-28T20:21:37.760Z,35.00
2022-12-28T20:24:07.020Z,34.90
2022-12-28T20:26:35.310Z,34.80
2022-12-28T20:29:05.060Z,34.90
2022-12-28T20:31:33.231Z,35.10
2022-12-28T20:34:02.768Z,35.50
2022-12-28T20:36:33.955Z,35.80
2022-12-28T20:39:02.376Z,36.10
2022-12-28T20:41:48.131Z,36.30
2022-12-28T20:44:17.615Z,36.50
2022-12-28T20:46:45.809Z,36.10
2022-12-28T20:49:15.617Z,35.90
2022-12-28T20:51:43.988Z,35.60
2022-12-28T20:54:12.131Z,35.40
2022-12-28T20:56:42.018Z,35.20
2022-12-28T20:59:10.487Z,35.10
2022-12-28T21:01:39.106Z,34.90
2022-12-28T21:04:07.466Z,35.00
2022-12-28T21:06:37.020Z,35.30
2022-12-28T21:09:05.263Z,35.70
2022-12-28T21:11:33.603Z,36.00
2022-12-28T21:14:01.821Z,36.20
2022-12-28T21:16:30.547Z,35.90
2022-12-28T21:18:58.793Z,35.70
2022-12-28T21:21:26.934Z,35.50
2022-12-28T21:23:56.386Z,35.30
2022-12-28T21:26:25.717Z,35.70
2022-12-28T21:28:53.787Z,35.00
2022-12-28T21:31:21.879Z,34.80
2022-12-28T21:33:51.073Z,34.80
2022-12-28T21:36:20.178Z,35.00
2022-12-28T21:38:48.801Z,35.40
2022-12-28T21:41:40.395Z,35.70
2022-12-28T21:44:08.672Z,36.00
2022-12-28T21:46:36.823Z,36.00
2022-12-28T21:49:05.086Z,35.70
2022-12-28T21:51:35.230Z,35.50
2022-12-28T21:54:04.421Z,35.30
2022-12-28T21:56:34.555Z,35.10
2022-12-28T21:59:02.687Z,34.90
2022-12-28T22:01:48.530Z,34.80
2022-12-28T22:04:35.040Z,34.70
2022-12-28T22:07:03.088Z,35.00
2022-12-28T22:09:48.732Z,35.50
2022-12-28T22:12:37.196Z,35.80
2022-12-28T22:15:25.851Z,36.10
2022-12-28T22:17:55.263Z,35.90
2022-12-28T22:20:23.669Z,35.70
2022-12-28T22:22:51.745Z,35.50
2022-12-28T22:25:19.830Z,35.20
2022-12-28T22:27:49.248Z,35.10
2022-12-28T22:30:17.329Z,34.90
2022-12-28T22:32:45.371Z,34.80
2022-12-28T22:35:13.387Z,34.80
2022-12-28T22:37:42.772Z,34.90
2022-12-28T22:40:11.696Z,35.30
2022-12-28T22:42:42.149Z,35.60
2022-12-28T22:45:13.135Z,35.90
2022-12-28T22:47:41.210Z,36.20
2022-12-28T22:50:10.840Z,36.30
2022-12-28T22:52:38.858Z,36.30
2022-12-28T22:55:07.573Z,36.00
2022-12-28T22:57:35.635Z,35.80
2022-12-28T23:00:03.951Z,35.50
2022-12-28T23:02:33.412Z,35.30
2022-12-28T23:05:02.022Z,35.20
2022-12-28T23:07:30.017Z,35.10
2022-12-28T23:09:58.139Z,34.80
2022-12-28T23:12:26.155Z,34.90
2022-12-28T23:15:11.898Z,35.20
2022-12-28T23:17:41.362Z,35.60
2022-12-28T23:20:28.390Z,35.90
2022-12-28T23:23:10.322Z,36.10
2022-12-28T23:25:58.009Z,35.80
2022-12-28T23:28:26.132Z,35.60
2022-12-28T23:30:56.405Z,35.40
2022-12-28T23:33:25.950Z,35.20
2022-12-28T23:35:53.971Z,35.00
2022-12-28T23:38:22.008Z,34.80
2022-12-28T23:41:10.045Z,34.80
2022-12-28T23:43:38.095Z,34.80
2022-12-28T23:46:06.433Z,35.20
2022-12-28T23:48:35.951Z,35.50
2022-12-28T23:51:08.438Z,35.80
2022-12-28T23:53:36.776Z,36.10
2022-12-28T23:56:05.063Z,35.70
2022-12-28T23:58:33.248Z,35.50
